Time;durP1;ratioP1;P1;durP2;ratioP2;P2;SDS_P1;SDS_P2;PMS_P1;PMS_P2;Temp;Humidity;BMP_temperature;BMP_pressure;BME280_temperature;BME280_humidity;BME280_pressure;Samples;Min_cycle;Max_cycle;Signal;HPM_P1;HPM_P2
2021/06/06 00:00:24;;;;;;;8.20;7.03;;;;;;;;;;5070151;28;20399;-80
2021/06/06 00:02:51;;;;;;;8.63;7.00;;;;;;;;;;5070124;28;20388;-79
2021/06/06 00:05:17;;;;;;;8.85;6.78;;;;;;;;;;5087920;28;20423;-79
2021/06/06 00:07:43;;;;;;;7.20;6.50;;;;;;;;;;5088080;28;20870;-79
2021/06/06 00:10:10;;;;;;;8.05;7.18;;;;;;;;;;5087606;28;20922;-79
2021/06/06 00:12:36;;;;;;;9.43;6.80;;;;;;;;;;5070145;28;20412;-78
2021/06/06 00:15:04;;;;;;;7.28;6.40;;;;;;;;;;5087577;28;20407;-79
2021/06/06 00:17:30;;;;;;;7.90;7.10;;;;;;;;;;5088110;28;20372;-80
2021/06/06 00:19:56;;;;;;;7.88;7.07;;;;;;;;;;5088266;28;20588;-79
2021/06/06 00:22:22;;;;;;;9.75;6.97;;;;;;;;;;5087790;28;20460;-80
2021/06/06 00:24:48;;;;;;;69.38;11.80;;;;;;;;;;5086727;28;20420;-79
2021/06/06 00:27:14;;;;;;;8.15;7.20;;;;;;;;;;5087679;28;20739;-78
2021/06/06 00:29:40;;;;;;;7.53;6.72;;;;;;;;;;5086373;28;20458;-78
2021/06/06 00:32:06;;;;;;;8.00;7.20;;;;;;;;;;5087023;28;20376;-79
2021/06/06 00:34:33;;;;;;;9.73;7.18;;;;;;;;;;5085121;28;20429;-79
2021/06/06 00:36:59;;;;;;;8.63;7.20;;;;;;;;;;5069220;28;20880;-80
2021/06/06 00:39:25;;;;;;;9.90;7.20;;;;;;;;;;5086362;28;20372;-80
2021/06/06 00:41:51;;;;;;;8.93;7.73;;;;;;;;;;5086231;28;20368;-80
2021/06/06 00:44:17;;;;;;;8.50;7.70;;;;;;;;;;5088012;28;20370;-79
2021/06/06 00:46:44;;;;;;;8.55;7.00;;;;;;;;;;5070474;28;20409;-78
2021/06/06 00:49:10;;;;;;;9.43;7.78;;;;;;;;;;5087923;28;20399;-78
2021/06/06 00:51:44;;;;;;;8.40;7.43;;;;;;;;;;5091514;28;20380;-78
2021/06/06 00:54:13;;;;;;;7.95;7.22;;;;;;;;;;5092647;28;20866;-80
2021/06/06 00:56:39;;;;;;;8.80;7.63;;;;;;;;;;5092649;28;20367;-80
2021/06/06 00:59:05;;;;;;;9.60;7.75;;;;;;;;;;5092666;28;20360;-79
2021/06/06 01:01:31;;;;;;;9.82;8.15;;;;;;;;;;5074003;28;20716;-80
2021/06/06 01:03:59;;;;;;;8.57;7.15;;;;;;;;;;5092615;28;20391;-79
2021/06/06 01:06:27;;;;;;;8.48;7.10;;;;;;;;;;5074084;28;20404;-80
2021/06/06 01:08:54;;;;;;;9.00;7.47;;;;;;;;;;5092264;28;20973;-79
2021/06/06 01:11:38;;;;;;;8.52;7.40;;;;;;;;;;5091962;28;20379;-79
2021/06/06 01:14:12;;;;;;;8.35;7.50;;;;;;;;;;5092290;28;20364;-80
2021/06/06 01:16:42;;;;;;;9.07;7.68;;;;;;;;;;5092144;28;20734;-80
2021/06/06 01:19:11;;;;;;;10.13;7.73;;;;;;;;;;5092043;28;20365;-79
2021/06/06 01:22:03;;;;;;;9.30;7.67;;;;;;;;;;5091775;28;20380;-80
2021/06/06 01:24:31;;;;;;;8.80;7.50;;;;;;;;;;5092023;28;20364;-80
2021/06/06 01:26:57;;;;;;;9.88;7.63;;;;;;;;;;5091943;28;20377;-78
2021/06/06 01:29:42;;;;;;;9.15;7.28;;;;;;;;;;5091791;28;20387;-79
2021/06/06 01:32:15;;;;;;;8.55;7.63;;;;;;;;;;5091805;28;20839;-78
2021/06/06 01:34:43;;;;;;;7.93;7.13;;;;;;;;;;5091592;28;20906;-78
2021/06/06 01:37:11;;;;;;;8.70;7.65;;;;;;;;;;5091598;28;20496;-79
2021/06/06 01:39:45;;;;;;;9.30;7.65;;;;;;;;;;5073512;28;20383;-79
2021/06/06 01:42:14;;;;;;;8.85;7.47;;;;;;;;;;5091794;28;20368;-78
2021/06/06 01:44:42;;;;;;;8.60;7.22;;;;;;;;;;5091529;28;20900;-79
2021/06/06 01:47:10;;;;;;;8.15;7.35;;;;;;;;;;5091739;28;20460;-79
2021/06/06 01:49:42;;;;;;;8.77;7.65;;;;;;;;;;5091676;28;20466;-79
2021/06/06 01:52:11;;;;;;;8.63;7.30;;;;;;;;;;5091581;28;20455;-80
2021/06/06 01:54:40;;;;;;;8.73;7.90;;;;;;;;;;5091311;28;20377;-80
2021/06/06 01:57:09;;;;;;;9.93;7.97;;;;;;;;;;5091464;28;20387;-77
2021/06/06 01:59:37;;;;;;;10.27;8.55;;;;;;;;;;5091174;28;20447;-78
2021/06/06 02:02:04;;;;;;;8.10;7.35;;;;;;;;;;5090283;28;20368;-78
2021/06/06 02:04:30;;;;;;;8.35;7.55;;;;;;;;;;5072953;28;20427;-79
2021/06/06 02:07:01;;;;;;;8.93;7.97;;;;;;;;;;5091431;28;20451;-79
2021/06/06 02:09:29;;;;;;;8.55;7.75;;;;;;;;;;5091204;28;20372;-79
2021/06/06 02:11:57;;;;;;;9.00;8.20;;;;;;;;;;5091071;28;20718;-79
2021/06/06 02:14:32;;;;;;;8.63;7.85;;;;;;;;;;5091032;28;20364;-79
2021/06/06 02:16:59;;;;;;;9.48;8.05;;;;;;;;;;5090721;28;20734;-79
2021/06/06 02:19:28;;;;;;;9.55;8.32;;;;;;;;;;5090534;28;20372;-78
2021/06/06 02:21:54;;;;;;;8.50;7.70;;;;;;;;;;5090717;28;20380;-79
2021/06/06 02:24:20;;;;;;;9.02;8.15;;;;;;;;;;5091000;28;20845;-78
2021/06/06 02:26:50;;;;;;;8.65;7.68;;;;;;;;;;5090598;28;20404;-80
2021/06/06 02:29:16;;;;;;;8.95;8.00;;;;;;;;;;5090847;28;20381;-80
2021/06/06 02:31:54;;;;;;;8.95;8.02;;;;;;;;;;5090841;28;20377;-79
2021/06/06 02:34:39;;;;;;;8.88;8.02;;;;;;;;;;5072536;28;20601;-79
2021/06/06 02:37:22;;;;;;;9.07;8.17;;;;;;;;;;5090373;28;20372;-80
2021/06/06 02:39:52;;;;;;;11.32;8.45;;;;;;;;;;5090517;28;20848;-79
2021/06/06 02:42:20;;;;;;;9.13;8.23;;;;;;;;;;5090331;28;20380;-79
2021/06/06 02:44:57;;;;;;;9.07;8.20;;;;;;;;;;5090603;28;20369;-79
2021/06/06 02:47:25;;;;;;;9.45;8.50;;;;;;;;;;5086864;28;20388;-79
2021/06/06 02:49:52;;;;;;;9.40;8.50;;;;;;;;;;5090255;28;20374;-80
2021/06/06 02:52:22;;;;;;;10.38;9.35;;;;;;;;;;5090251;28;20418;-79
2021/06/06 02:54:50;;;;;;;9.65;8.75;;;;;;;;;;5090442;28;20818;-79
2021/06/06 02:57:18;;;;;;;9.00;8.20;;;;;;;;;;5090251;28;20414;-79
2021/06/06 02:59:49;;;;;;;10.70;8.90;;;;;;;;;;5090301;28;20407;-80
2021/06/06 03:02:17;;;;;;;10.45;8.10;;;;;;;;;;5089948;28;20373;-79
2021/06/06 03:04:49;;;;;;;10.23;8.53;;;;;;;;;;5071773;28;20712;-80
2021/06/06 03:07:21;;;;;;;9.70;8.55;;;;;;;;;;5089985;28;20426;-79
2021/06/06 03:09:47;;;;;;;10.23;9.18;;;;;;;;;;5089944;28;20399;-78
2021/06/06 03:12:14;;;;;;;9.45;8.55;;;;;;;;;;5071469;28;20364;-79
2021/06/06 03:14:41;;;;;;;10.52;9.38;;;;;;;;;;5088686;28;20434;-78
2021/06/06 03:17:15;;;;;;;9.85;8.85;;;;;;;;;;5089931;28;20807;-79
2021/06/06 03:19:46;;;;;;;9.95;9.02;;;;;;;;;;5090190;28;20902;-79
2021/06/06 03:22:15;;;;;;;10.43;9.43;;;;;;;;;;5071759;28;20513;-79
2021/06/06 03:25:08;;;;;;;10.32;9.40;;;;;;;;;;5089877;28;20365;-79
2021/06/06 03:27:36;;;;;;;9.75;8.75;;;;;;;;;;5086133;28;20451;-79
2021/06/06 03:30:15;;;;;;;9.82;8.82;;;;;;;;;;5089715;28;20365;-79
2021/06/06 03:32:43;;;;;;;8.20;7.50;;;;;;;;;;5071407;28;20953;-78
2021/06/06 03:35:10;;;;;;;9.53;8.73;;;;;;;;;;5089606;28;20392;-78
2021/06/06 03:37:36;;;;;;;10.03;9.03;;;;;;;;;;5089299;28;20434;-78
2021/06/06 03:40:04;;;;;;;9.50;8.60;;;;;;;;;;5089809;28;20384;-79
2021/06/06 03:42:30;;;;;;;9.77;8.88;;;;;;;;;;5071022;28;20766;-79
2021/06/06 03:44:56;;;;;;;9.60;8.70;;;;;;;;;;5089451;28;20454;-79
2021/06/06 03:47:23;;;;;;;10.00;9.00;;;;;;;;;;5089389;28;20365;-79
2021/06/06 03:49:49;;;;;;;9.90;8.95;;;;;;;;;;5089507;28;20368;-79
2021/06/06 03:52:15;;;;;;;9.95;9.05;;;;;;;;;;5089263;28;20427;-79
2021/06/06 03:54:41;;;;;;;10.90;9.80;;;;;;;;;;5089616;28;20874;-79
2021/06/06 03:57:07;;;;;;;9.55;8.65;;;;;;;;;;5089309;28;20407;-79
2021/06/06 03:59:33;;;;;;;10.57;9.52;;;;;;;;;;5089420;28;20396;-78
2021/06/06 04:01:59;;;;;;;10.45;9.35;;;;;;;;;;5089136;28;20399;-79
2021/06/06 04:04:25;;;;;;;10.85;8.45;;;;;;;;;;5089209;28;20922;-79
2021/06/06 04:06:51;;;;;;;9.55;8.63;;;;;;;;;;5088885;28;20487;-78
2021/06/06 04:09:17;;;;;;;9.00;8.13;;;;;;;;;;5089119;28;20925;-78
2021/06/06 04:11:43;;;;;;;10.02;8.90;;;;;;;;;;5088610;28;20418;-78
2021/06/06 04:14:10;;;;;;;9.23;8.20;;;;;;;;;;5089097;28;20379;-79
2021/06/06 04:16:36;;;;;;;9.13;8.32;;;;;;;;;;5088879;28;20384;-80
2021/06/06 04:19:02;;;;;;;9.55;8.65;;;;;;;;;;5089017;28;20443;-79
2021/06/06 04:21:29;;;;;;;9.02;8.25;;;;;;;;;;5088548;28;20446;-80
2021/06/06 04:23:55;;;;;;;8.95;7.80;;;;;;;;;;5088607;28;20853;-79
2021/06/06 04:26:22;;;;;;;12.05;8.90;;;;;;;;;;5088347;28;20802;-80
2021/06/06 04:28:49;;;;;;;9.95;8.52;;;;;;;;;;5088758;28;20378;-78
2021/06/06 04:31:15;;;;;;;9.70;8.80;;;;;;;;;;5088628;28;20357;-80
2021/06/06 04:33:41;;;;;;;9.90;8.90;;;;;;;;;;5088435;28;20431;-79
2021/06/06 04:36:07;;;;;;;9.65;8.73;;;;;;;;;;5089148;28;20380;-78
2021/06/06 04:38:34;;;;;;;9.95;8.93;;;;;;;;;;5088677;28;20403;-79
2021/06/06 04:41:01;;;;;;;11.25;9.13;;;;;;;;;;5088789;28;20376;-80
2021/06/06 04:43:27;;;;;;;10.20;9.10;;;;;;;;;;5088537;28;20859;-80
2021/06/06 04:45:54;;;;;;;9.57;8.68;;;;;;;;;;5088742;28;20396;-79
2021/06/06 04:48:20;;;;;;;8.93;8.02;;;;;;;;;;5088307;28;20404;-80
2021/06/06 04:50:47;;;;;;;13.50;9.50;;;;;;;;;;5088623;28;20364;-80
2021/06/06 04:53:13;;;;;;;10.38;8.93;;;;;;;;;;5088490;28;20403;-78
2021/06/06 04:55:39;;;;;;;10.80;9.73;;;;;;;;;;5070441;28;20380;-80
2021/06/06 04:58:05;;;;;;;11.23;8.65;;;;;;;;;;5088653;28;20364;-79
2021/06/06 05:00:32;;;;;;;11.80;8.88;;;;;;;;;;5070817;28;20467;-80
2021/06/06 05:02:58;;;;;;;9.20;8.30;;;;;;;;;;5088429;28;20375;-78
2021/06/06 05:05:24;;;;;;;9.32;8.43;;;;;;;;;;5070403;28;20447;-79
2021/06/06 05:07:52;;;;;;;9.52;8.55;;;;;;;;;;5088307;28;20388;-80
2021/06/06 05:10:19;;;;;;;28.52;10.57;;;;;;;;;;5088493;28;20814;-80
2021/06/06 05:12:45;;;;;;;11.43;9.50;;;;;;;;;;5088527;28;20361;-79
2021/06/06 05:15:11;;;;;;;10.07;9.07;;;;;;;;;;5070348;28;20739;-79
2021/06/06 05:17:37;;;;;;;9.68;8.48;;;;;;;;;;5088279;28;20372;-79
2021/06/06 05:20:07;;;;;;;12.35;8.55;;;;;;;;;;5088443;28;20411;-80
2021/06/06 05:22:33;;;;;;;9.98;8.70;;;;;;;;;;5088091;28;20386;-80
2021/06/06 05:24:59;;;;;;;10.55;9.60;;;;;;;;;;5070050;28;20898;-79
2021/06/06 05:27:25;;;;;;;10.20;9.18;;;;;;;;;;5088099;28;20481;-79
2021/06/06 05:29:51;;;;;;;9.80;8.80;;;;;;;;;;5088377;28;20940;-80
2021/06/06 05:32:17;;;;;;;10.25;9.18;;;;;;;;;;5088153;28;20408;-80
2021/06/06 05:34:43;;;;;;;10.97;9.60;;;;;;;;;;5070048;28;20769;-78
2021/06/06 05:37:13;;;;;;;14.52;10.20;;;;;;;;;;5089401;28;21484;-79
2021/06/06 05:39:39;;;;;;;10.57;9.48;;;;;;;;;;5091722;28;20377;-79
2021/06/06 05:42:05;;;;;;;11.68;10.68;;;;;;;;;;5073429;28;20479;-80
2021/06/06 05:44:31;;;;;;;14.00;10.45;;;;;;;;;;5073411;28;20818;-80
2021/06/06 05:46:57;;;;;;;12.68;10.85;;;;;;;;;;5073487;28;20405;-79
2021/06/06 05:49:23;;;;;;;11.43;10.33;;;;;;;;;;5073341;28;20382;-78
2021/06/06 05:51:49;;;;;;;12.00;10.30;;;;;;;;;;5091517;28;20464;-78
2021/06/06 05:54:16;;;;;;;11.43;10.30;;;;;;;;;;5091521;28;20463;-79
2021/06/06 05:56:43;;;;;;;12.48;11.25;;;;;;;;;;5091765;28;20357;-80
2021/06/06 05:59:09;;;;;;;13.33;11.93;;;;;;;;;;5091472;28;20859;-80
2021/06/06 06:01:35;;;;;;;13.50;12.13;;;;;;;;;;5073175;28;20392;-78
2021/06/06 06:04:01;;;;;;;12.65;11.45;;;;;;;;;;5091326;28;20368;-80
2021/06/06 06:06:27;;;;;;;30.52;12.57;;;;;;;;;;5073427;28;21416;-79
2021/06/06 06:08:54;;;;;;;12.88;11.57;;;;;;;;;;5073085;28;20391;-78
2021/06/06 06:11:21;;;;;;;17.17;12.10;;;;;;;;;;5091476;28;20913;-80
2021/06/06 06:13:48;;;;;;;13.27;12.07;;;;;;;;;;5091229;28;20377;-80
2021/06/06 06:16:15;;;;;;;13.38;11.85;;;;;;;;;;5091533;28;20376;-79
2021/06/06 06:18:41;;;;;;;13.55;12.18;;;;;;;;;;5090863;28;20411;-80
2021/06/06 06:21:09;;;;;;;24.98;12.15;;;;;;;;;;5072739;28;20466;-81
2021/06/06 06:23:35;;;;;;;13.27;11.93;;;;;;;;;;5091116;28;20425;-81
2021/06/06 06:26:02;;;;;;;13.07;11.88;;;;;;;;;;5091000;28;20491;-80
2021/06/06 06:28:28;;;;;;;13.50;11.75;;;;;;;;;;5090600;28;20379;-80
2021/06/06 06:30:54;;;;;;;12.43;11.40;;;;;;;;;;5090982;28;20376;-81
2021/06/06 06:33:20;;;;;;;12.55;11.40;;;;;;;;;;5090694;28;20889;-82
2021/06/06 06:35:46;;;;;;;13.40;12.13;;;;;;;;;;5091130;28;20383;-82
2021/06/06 06:38:12;;;;;;;13.70;12.43;;;;;;;;;;5090884;28;20392;-87
2021/06/06 06:40:39;;;;;;;12.17;11.07;;;;;;;;;;5091321;28;20863;-84
2021/06/06 06:43:05;;;;;;;14.68;11.60;;;;;;;;;;5090360;28;20382;-84
2021/06/06 06:45:32;;;;;;;12.77;11.48;;;;;;;;;;5090494;28;20392;-80
2021/06/06 06:48:06;;;;;;;12.95;11.45;;;;;;;;;;5090355;28;20376;-83
2021/06/06 06:50:32;;;;;;;13.50;12.18;;;;;;;;;;5090441;28;20855;-81
2021/06/06 06:53:00;;;;;;;13.18;11.98;;;;;;;;;;5090203;28;20731;-84
2021/06/06 06:55:26;;;;;;;12.45;11.25;;;;;;;;;;5090478;28;20867;-83
2021/06/06 06:57:53;;;;;;;12.93;11.77;;;;;;;;;;5090867;28;20373;-85
2021/06/06 07:00:21;;;;;;;12.15;10.95;;;;;;;;;;5090108;28;20378;-80
2021/06/06 07:02:47;;;;;;;12.30;10.68;;;;;;;;;;5072309;28;20388;-82
2021/06/06 07:05:14;;;;;;;12.80;11.48;;;;;;;;;;5090479;28;21061;-79
2021/06/06 07:07:40;;;;;;;13.07;11.68;;;;;;;;;;5090299;28;20382;-82
2021/06/06 07:10:07;;;;;;;13.05;11.95;;;;;;;;;;5090319;28;20428;-84
2021/06/06 07:12:33;;;;;;;12.27;11.20;;;;;;;;;;5072098;28;20463;-84
2021/06/06 07:14:59;;;;;;;13.40;12.00;;;;;;;;;;5090240;28;20383;-85
2021/06/06 07:17:25;;;;;;;13.57;12.07;;;;;;;;;;5090376;28;20376;-83
2021/06/06 07:19:51;;;;;;;13.43;12.13;;;;;;;;;;5090061;28;20422;-83
2021/06/06 07:22:18;;;;;;;14.20;12.80;;;;;;;;;;5090157;28;20434;-83
2021/06/06 07:24:45;;;;;;;12.63;11.50;;;;;;;;;;5071773;28;20738;-84
2021/06/06 07:27:11;;;;;;;12.90;11.68;;;;;;;;;;5090184;28;20464;-81
2021/06/06 07:29:37;;;;;;;13.77;12.38;;;;;;;;;;5089875;28;20404;-82
2021/06/06 07:32:04;;;;;;;13.13;11.93;;;;;;;;;;5089883;28;20368;-84
2021/06/06 07:34:30;;;;;;;12.60;11.38;;;;;;;;;;5089831;28;20373;-81
2021/06/06 07:36:58;;;;;;;13.90;12.45;;;;;;;;;;5089729;28;20372;-86
2021/06/06 07:39:24;;;;;;;14.23;12.93;;;;;;;;;;5089602;28;20712;-81
2021/06/06 07:41:50;;;;;;;16.58;12.80;;;;;;;;;;5089827;28;20375;-86
2021/06/06 07:44:18;;;;;;;14.70;13.27;;;;;;;;;;5089350;28;20411;-83
2021/06/06 07:46:44;;;;;;;14.50;13.20;;;;;;;;;;5089520;28;20422;-83
2021/06/06 07:49:10;;;;;;;14.98;13.75;;;;;;;;;;5071299;28;20407;-77
2021/06/06 07:51:36;;;;;;;14.27;12.98;;;;;;;;;;5089043;28;21021;-83
2021/06/06 07:54:03;;;;;;;14.43;13.03;;;;;;;;;;5089150;28;20376;-80
2021/06/06 07:56:29;;;;;;;13.68;12.48;;;;;;;;;;5089338;28;20413;-83
2021/06/06 07:58:55;;;;;;;13.50;12.20;;;;;;;;;;5089382;28;20384;-80
2021/06/06 08:01:21;;;;;;;13.77;12.38;;;;;;;;;;5089019;28;20395;-81
2021/06/06 08:03:50;;;;;;;13.18;11.80;;;;;;;;;;5089401;28;20369;-83
2021/06/06 08:06:17;;;;;;;13.07;11.98;;;;;;;;;;5071012;28;20469;-84
2021/06/06 08:08:43;;;;;;;13.98;12.70;;;;;;;;;;5089288;28;20862;-83
2021/06/06 08:11:10;;;;;;;13.70;12.40;;;;;;;;;;5089363;28;20375;-84
2021/06/06 08:13:36;;;;;;;13.73;11.98;;;;;;;;;;5070921;28;20429;-81
2021/06/06 08:16:03;;;;;;;12.57;11.20;;;;;;;;;;5089309;28;20438;-79
2021/06/06 08:18:31;;;;;;;14.30;11.43;;;;;;;;;;5071162;28;20380;-83
2021/06/06 08:21:08;;;;;;;12.10;11.00;;;;;;;;;;5088818;28;20376;-80
2021/06/06 08:23:34;;;;;;;12.23;11.02;;;;;;;;;;5089304;28;20428;-80
2021/06/06 08:26:00;;;;;;;12.55;11.10;;;;;;;;;;5088941;28;20449;-85
2021/06/06 08:28:27;;;;;;;14.13;11.35;;;;;;;;;;5068951;28;20468;-83
2021/06/06 08:30:55;;;;;;;12.85;11.75;;;;;;;;;;5070871;28;20852;-83
2021/06/06 08:33:22;;;;;;;12.00;10.90;;;;;;;;;;5088824;28;20412;-81
2021/06/06 08:35:49;;;;;;;10.75;9.85;;;;;;;;;;5063060;28;20467;-83
2021/06/06 08:38:15;;;;;;;12.27;10.05;;;;;;;;;;5088583;28;20364;-82
2021/06/06 08:40:59;;;;;;;11.40;10.27;;;;;;;;;;5087175;28;20804;-82
2021/06/06 08:43:30;;;;;;;11.35;10.27;;;;;;;;;;5088510;28;20372;-82
2021/06/06 08:45:58;;;;;;;10.98;9.98;;;;;;;;;;5068342;28;20529;-80
2021/06/06 08:48:27;;;;;;;10.80;9.80;;;;;;;;;;5087290;28;20400;-81
2021/06/06 08:51:13;;;;;;;11.77;10.77;;;;;;;;;;5087017;28;20406;-83
2021/06/06 08:53:49;;;;;;;11.60;10.07;;;;;;;;;;5086142;28;20404;-80
2021/06/06 08:56:23;;;;;;;11.82;10.65;;;;;;;;;;5086235;28;20390;-83
2021/06/06 08:58:49;;;;;;;11.33;10.37;;;;;;;;;;5069115;28;20464;-83
2021/06/06 09:01:18;;;;;;;11.82;10.75;;;;;;;;;;5087312;28;20380;-90
2021/06/06 09:03:44;;;;;;;12.30;10.30;;;;;;;;;;5086906;28;20411;-82
2021/06/06 09:06:34;;;;;;;12.32;11.02;;;;;;;;;;5086069;28;20400;-84
2021/06/06 09:09:00;;;;;;;12.48;11.35;;;;;;;;;;5087248;28;20388;-83
2021/06/06 09:11:31;;;;;;;12.32;11.07;;;;;;;;;;5068393;28;20384;-85
2021/06/06 09:13:57;;;;;;;12.30;11.20;;;;;;;;;;5072347;28;20420;-85
2021/06/06 09:16:29;;;;;;;12.40;11.20;;;;;;;;;;5089557;28;20384;-83
2021/06/06 09:19:00;;;;;;;12.60;11.50;;;;;;;;;;5089644;28;20376;-80
2021/06/06 09:21:27;;;;;;;12.85;11.52;;;;;;;;;;5070375;28;20932;-84
2021/06/06 09:24:03;;;;;;;12.43;11.05;;;;;;;;;;5086605;28;20370;-86
2021/06/06 09:26:29;;;;;;;11.10;10.18;;;;;;;;;;5087484;28;20975;-82
2021/06/06 09:29:15;;;;;;;11.05;10.13;;;;;;;;;;5089696;28;20376;-83
2021/06/06 09:31:41;;;;;;;9.48;8.48;;;;;;;;;;5076969;28;20380;-81
2021/06/06 09:34:08;;;;;;;8.52;7.60;;;;;;;;;;5090863;28;20753;-81
2021/06/06 09:36:37;;;;;;;8.20;7.40;;;;;;;;;;5091853;28;20371;-83
2021/06/06 09:39:04;;;;;;;11.15;9.93;;;;;;;;;;5071247;28;20377;-81
2021/06/06 09:41:36;;;;;;;9.98;9.18;;;;;;;;;;5091564;28;20467;-83
2021/06/06 09:44:14;;;;;;;10.60;9.57;;;;;;;;;;5091801;28;20932;-84
2021/06/06 09:46:43;;;;;;;8.15;7.40;;;;;;;;;;5073163;28;20483;-81
2021/06/06 09:49:24;;;;;;;10.52;8.40;;;;;;;;;;5092062;28;20364;-83
2021/06/06 09:51:51;;;;;;;10.38;9.23;;;;;;;;;;5072921;28;20388;-83
2021/06/06 09:54:25;;;;;;;10.57;9.68;;;;;;;;;;5091358;28;20387;-81
2021/06/06 09:56:53;;;;;;;11.30;9.47;;;;;;;;;;5090393;28;20377;-85
2021/06/06 09:59:30;;;;;;;11.05;9.95;;;;;;;;;;5090408;28;20377;-84
2021/06/06 10:02:01;;;;;;;10.27;9.27;;;;;;;;;;5070958;28;20811;-83
2021/06/06 10:04:29;;;;;;;9.13;8.13;;;;;;;;;;5089311;28;20471;-83
2021/06/06 10:07:06;;;;;;;8.65;7.75;;;;;;;;;;5089211;28;20397;-80
2021/06/06 10:09:32;;;;;;;8.10;7.30;;;31.30;88.50;;;;;;5069347;28;20422;-82
2021/06/06 10:12:28;;;;;;;8.35;7.55;;;31.30;89.10;;;;;;5088326;28;20398;-83
2021/06/06 10:15:08;;;;;;;10.13;8.30;;;31.20;88.20;;;;;;5087027;28;20392;-83
2021/06/06 10:17:47;;;;;;;10.82;7.63;;;30.60;89.70;;;;;;5069630;28;20392;-85
2021/06/06 10:20:13;;;;;;;7.85;7.05;;;30.50;89.80;;;;;;5088552;28;20932;-83
2021/06/06 10:22:43;;;;;;;12.13;7.30;;;30.40;88.90;;;;;;5087135;28;20389;-82
2021/06/06 10:25:18;;;;;;;20.50;8.55;;;30.30;85.60;;;;;;5070361;28;20396;-83
2021/06/06 10:27:59;;;;;;;8.18;7.38;;;30.30;87.90;;;;;;5088211;28;20450;-82
2021/06/06 10:30:38;;;;;;;11.82;7.38;;;30.10;87.30;;;;;;5088220;28;20395;-85
2021/06/06 10:33:30;;;;;;;8.20;7.50;;;30.00;87.10;;;;;;5089923;28;20411;-84
2021/06/06 10:35:59;;;;;;;9.77;7.40;;;30.10;87.90;;;;;;5072749;28;20758;-79
2021/06/06 10:38:25;;;;;;;8.25;7.45;;;30.10;90.10;;;;;;5094350;28;20380;-84
2021/06/06 10:40:54;;;;;;;14.70;8.00;;;30.30;90.10;;;;;;5072147;28;20866;-82
2021/06/06 10:43:44;;;;;;;8.27;7.57;;;30.40;86.60;;;;;;5089161;28;20469;-81
2021/06/06 10:46:41;;;;;;;7.03;6.43;;;30.60;88.40;;;;;;5085590;28;20388;-79
2021/06/06 10:49:44;;;;;;;7.47;6.78;;;30.60;85.00;;;;;;5090585;28;20377;-86
2021/06/06 10:52:34;;;;;;;6.88;6.20;;;30.50;83.00;;;;;;5009028;28;20477;-85
2021/06/06 10:55:16;;;;;;;7.82;6.80;;;30.60;84.80;;;;;;5052399;28;20382;-81
2021/06/06 10:57:42;;;;;;;9.50;7.05;;;30.60;83.10;;;;;;5071332;28;20575;-88
2021/06/06 11:00:35;;;;;;;8.00;7.30;;;30.50;83.80;;;;;;5071759;28;20388;-80
2021/06/06 11:03:25;;;;;;;8.85;7.20;;;30.60;86.40;;;;;;5071708;28;20384;-84
2021/06/06 11:05:57;;;;;;;6.93;6.20;;;30.70;83.70;;;;;;5069973;28;20405;-83
2021/06/06 11:08:28;;;;;;;7.50;6.43;;;30.70;82.80;;;;;;5069830;28;20804;-83
2021/06/06 11:11:15;;;;;;;9.73;7.60;;;30.90;80.00;;;;;;5079066;28;21005;-80
2021/06/06 11:14:13;;;;;;;8.50;7.60;;;30.70;82.40;;;;;;5090121;28;20399;-84
2021/06/06 11:16:48;;;;;;;8.20;7.38;;;30.30;82.90;;;;;;5089514;28;20480;-83
2021/06/06 11:19:33;;;;;;;6.55;5.95;;;30.40;85.50;;;;;;5089673;28;20419;-82
2021/06/06 11:22:29;;;;;;;7.75;6.30;;;30.60;79.50;;;;;;5071564;28;20396;-84
2021/06/06 11:24:56;;;;;;;6.75;6.15;;;30.80;80.60;;;;;;5089415;28;20465;-81
2021/06/06 11:27:29;;;;;;;7.10;6.15;;;31.10;79.40;;;;;;5089830;28;20400;-82
2021/06/06 11:30:06;;;;;;;7.10;5.97;;;31.50;79.30;;;;;;5089375;28;20400;-81
2021/06/06 11:32:59;;;;;;;7.55;5.78;;;31.60;74.10;;;;;;5089285;28;20881;-82
2021/06/06 11:35:34;;;;;;;6.45;5.30;;;31.40;72.30;;;;;;5088557;28;20842;-81
2021/06/06 11:38:40;;;;;;;5.60;5.10;;;31.50;72.70;;;;;;5086400;28;20392;-81
2021/06/06 11:41:29;;;;;;;5.85;4.88;;;31.60;72.60;;;;;;5058164;28;20393;-80
2021/06/06 11:44:16;;;;;;;7.03;5.15;;;31.30;70.60;;;;;;5087747;28;20387;-82
2021/06/06 11:46:58;;;;;;;6.28;5.10;;;31.10;69.20;;;;;;5068404;28;20500;-82
2021/06/06 11:49:30;;;;;;;6.50;5.50;;;30.80;72.20;;;;;;5085153;28;20388;-83
2021/06/06 11:52:05;;;;;;;5.93;5.43;;;30.50;69.10;;;;;;5084461;28;20463;-81
2021/06/06 11:54:57;;;;;;;6.68;5.10;;;29.80;69.50;;;;;;5086743;28;20850;-81
2021/06/06 11:57:36;;;;;;;5.43;4.93;;;29.40;69.90;;;;;;5087588;28;20398;-82
2021/06/06 12:00:12;;;;;;;5.80;5.20;;;29.10;71.10;;;;;;5088656;28;20426;-82
2021/06/06 12:02:39;;;;;;;5.85;5.25;;;29.10;74.60;;;;;;5086356;28;20391;-82
2021/06/06 12:05:26;;;;;;;7.43;5.10;;;29.00;71.60;;;;;;5088298;28;20403;-85
2021/06/06 12:07:52;;;;;;;5.95;4.90;;;29.00;74.60;;;;;;5083572;28;20379;-81
2021/06/06 12:10:31;;;;;;;5.57;5.07;;;29.00;73.00;;;;;;5083130;28;20385;-84
2021/06/06 12:12:59;;;;;;;5.82;5.05;;;29.10;73.50;;;;;;5083281;28;20520;-80
2021/06/06 12:15:34;;;;;;;13.82;5.50;;;29.10;74.10;;;;;;5080675;28;20421;-83
2021/06/06 12:18:03;;;;;;;8.87;5.40;;;28.90;74.30;;;;;;5068724;28;20416;-81
2021/06/06 12:20:29;;;;;;;6.75;5.65;;;28.60;73.90;;;;;;5087953;28;20730;-78
2021/06/06 12:23:04;;;;;;;6.88;5.93;;;28.40;73.90;;;;;;5087479;28;20407;-81
2021/06/06 12:25:30;;;;;;;7.10;6.28;;;28.60;75.70;;;;;;5087843;28;20408;-78
2021/06/06 12:28:19;;;;;;;7.35;5.65;;;28.70;76.70;;;;;;5088748;28;20381;-79
2021/06/06 12:30:47;;;;;;;8.47;6.07;;;28.70;76.90;;;;;;5082573;28;20384;-81
2021/06/06 12:33:16;;;;;;;6.53;5.93;;;28.60;77.30;;;;;;5084780;28;20525;-80
2021/06/06 12:35:51;;;;;;;7.53;6.43;;;28.60;77.00;;;;;;5084567;28;20471;-82
2021/06/06 12:38:20;;;;;;;6.60;5.75;;;28.60;75.60;;;;;;5063472;28;21109;-85
2021/06/06 12:40:47;;;;;;;6.38;5.72;;;28.80;80.30;;;;;;5067293;28;20901;-84
2021/06/06 12:43:17;;;;;;;6.55;5.90;;;29.00;77.80;;;;;;5088191;28;20371;-83
2021/06/06 12:45:45;;;;;;;6.97;6.00;;;29.10;76.40;;;;;;5088501;28;20531;-81
2021/06/06 12:48:26;;;;;;;7.03;6.05;;;29.10;76.90;;;;;;5092119;28;20478;-81
2021/06/06 12:50:56;;;;;;;77.85;12.27;;;29.10;77.30;;;;;;5072057;28;20453;-82
2021/06/06 12:53:34;;;;;;;6.22;5.63;;;29.30;79.80;;;;;;5091582;28;20391;-85
2021/06/06 12:56:17;;;;;;;6.82;6.13;;;29.20;76.90;;;;;;5091770;28;20369;-83
2021/06/06 12:58:44;;;;;;;7.13;5.90;;;29.20;75.70;;;;;;5091663;28;20446;-83
2021/06/06 13:01:22;;;;;;;6.47;5.88;;;29.20;75.70;;;;;;5090901;28;20384;-85
2021/06/06 13:03:49;;;;;;;6.75;6.15;;;29.30;75.50;;;;;;5089266;28;20383;-81
2021/06/06 13:06:37;;;;;;;6.32;5.65;;;29.30;74.00;;;;;;5091712;28;20393;-84
2021/06/06 13:09:19;;;;;;;6.78;5.63;;;29.50;77.10;;;;;;5090835;28;20380;-84
2021/06/06 13:11:48;;;;;;;6.43;5.43;;;29.70;75.40;;;;;;5091587;28;20433;-85
2021/06/06 13:14:21;;;;;;;6.03;5.47;;;30.00;75.20;;;;;;5074359;28;20407;-81
2021/06/06 13:17:12;;;;;;;5.95;5.30;;;30.10;74.20;;;;;;5089968;28;20404;-83
2021/06/06 13:19:44;;;;;;;5.97;5.38;;;30.10;72.80;;;;;;5091142;28;20377;-83
2021/06/06 13:22:23;;;;;;;5.97;5.40;;;30.30;74.30;;;;;;5088604;28;20387;-80
2021/06/06 13:24:50;;;;;;;6.07;5.40;;;30.40;71.80;;;;;;5091371;28;20388;-82
2021/06/06 13:27:26;;;;;;;6.05;5.53;;;30.40;71.40;;;;;;5091039;28;20563;-83
2021/06/06 13:29:56;;;;;;;7.88;5.57;;;30.50;74.30;;;;;;5089300;28;20736;-83
2021/06/06 13:32:23;;;;;;;7.00;5.55;;;30.80;72.90;;;;;;5091179;28;20453;-80
2021/06/06 13:34:52;;;;;;;5.65;5.10;;;30.90;69.80;;;;;;5091006;28;20392;-83
2021/06/06 13:37:20;;;;;;;6.05;5.55;;;30.70;70.30;;;;;;5090435;28;20381;-83
2021/06/06 13:39:48;;;;;;;7.63;5.68;;;30.50;69.50;;;;;;5089642;28;21120;-84
2021/06/06 13:42:15;;;;;;;6.28;5.57;;;30.10;69.10;;;;;;5088570;28;20372;-82
2021/06/06 13:44:41;;;;;;;5.88;5.38;;;29.80;70.00;;;;;;5090018;28;20369;-84
2021/06/06 13:47:10;;;;;;;5.60;5.10;;;29.80;73.10;;;;;;5090260;28;20768;-81
2021/06/06 13:49:36;;;;;;;6.57;5.43;;;29.80;69.70;;;;;;5091068;28;20408;-83
2021/06/06 13:52:03;;;;;;;6.03;5.43;;;29.60;68.50;;;;;;5090742;28;20403;-82
2021/06/06 13:54:33;;;;;;;6.00;5.18;;;29.60;71.20;;;;;;5087685;28;20381;-80
2021/06/06 13:57:00;;;;;;;5.80;5.30;;;29.60;71.10;;;;;;5071475;28;20396;-82
2021/06/06 13:59:27;;;;;;;5.47;4.97;;;29.70;70.70;;;;;;5086818;28;20914;-81
2021/06/06 14:01:53;;;;;;;6.77;5.63;;;29.90;72.00;;;;;;5090622;28;20454;-80
2021/06/06 14:04:20;;;;;;;6.05;5.00;;;30.00;68.30;;;;;;5071957;28;20724;-82
2021/06/06 14:06:45;;;;;;;6.38;5.50;;;29.80;69.90;;;;;;5068731;28;22097;-81
2021/06/06 14:09:15;;;;;;;7.45;4.97;;;29.90;72.70;;;;;;5089628;28;20422;-84
2021/06/06 14:11:46;;;;;;;6.07;5.32;;;29.90;72.00;;;;;;5071750;28;20403;-84
2021/06/06 14:14:11;;;;;;;5.35;4.93;;;30.00;72.10;;;;;;5090262;28;20869;-84
2021/06/06 14:16:38;;;;;;;5.22;4.72;;;30.00;71.30;;;;;;5084413;28;20376;-82